Terminal Aerodrome Forecast
Issued by NWS Central Illinois

Home | Current Version | Previous Version | Text Only | Print | Product List | Glossary On
Versions: 1 2 3 4 5 6 7 8 9 10 11 12 13 14 15 16 17 18 19 20 21 22 23 24 25 26 27
000
FTUS43 KILX 282357 AAA
TAFSPI
TAF AMD
KSPI 282357Z 2900/2924 15006KT P6SM VCTS BKN050CB
     FM290200 16008KT P6SM BKN050
     FM290600 18008KT P6SM VCTS SCT035 BKN050CB
     FM291500 19010KT P6SM BKN035
     FM292100 21010KT P6SM VCTS BKN050CB=

USA.gov is the U.S. government's official web portal to all federal, state and local government web resources and services.